Time;durP1;ratioP1;P1;durP2;ratioP2;P2;SDS_P1;SDS_P2;PMS_P1;PMS_P2;Temp;Humidity;BMP_temperature;BMP_pressure;BME280_temperature;BME280_humidity;BME280_pressure;Samples;Min_cycle;Max_cycle;Signal;HPM_P1;HPM_P2
2021/10/11 00:01:17;;;;;;;59.00;27.80;;;;;;;;;;5034030;28;20566;-79
2021/10/11 00:03:44;;;;;;;61.72;27.80;;;;;;;;;;5034096;28;20068;-79
2021/10/11 00:06:11;;;;;;;55.28;25.33;;;;;;;;;;5034083;28;20041;-79
2021/10/11 00:08:39;;;;;;;47.60;23.50;;;;;;;;;;5034055;28;20053;-79
2021/10/11 00:11:06;;;;;;;43.22;21.48;;;;;;;;;;5033902;28;20049;-78
2021/10/11 00:13:33;;;;;;;44.67;21.00;;;;;;;;;;5034412;28;20053;-78
2021/10/11 00:16:00;;;;;;;41.42;19.08;;;;;;;;;;5034140;28;20050;-79
2021/10/11 00:18:27;;;;;;;43.65;21.58;;;;;;;;;;5034384;28;20099;-79
2021/10/11 00:20:53;;;;;;;47.47;21.35;;;;;;;;;;5034251;28;20049;-80
2021/10/11 00:23:20;;;;;;;43.28;20.77;;;;;;;;;;5033753;28;20150;-79
2021/10/11 00:25:48;;;;;;;44.03;21.55;;;;;;;;;;5034066;28;20050;-79
2021/10/11 00:28:15;;;;;;;42.38;19.55;;;;;;;;;;5033936;28;20045;-80
2021/10/11 00:30:42;;;;;;;43.85;21.27;;;;;;;;;;5033517;28;20515;-79
2021/10/11 00:33:09;;;;;;;46.03;19.58;;;;;;;;;;5032239;28;20561;-79
2021/10/11 00:35:37;;;;;;;40.50;19.30;;;;;;;;;;5032235;28;20046;-79
2021/10/11 00:38:04;;;;;;;39.65;19.20;;;;;;;;;;5032213;28;20096;-79
2021/10/11 00:40:30;;;;;;;38.92;19.55;;;;;;;;;;5032341;28;20045;-79
2021/10/11 00:42:59;;;;;;;40.67;19.45;;;;;;;;;;5031964;28;20087;-79
2021/10/11 00:45:25;;;;;;;37.92;18.60;;;;;;;;;;5032033;28;20056;-78
2021/10/11 00:47:52;;;;;;;39.58;18.88;;;;;;;;;;5031886;28;20053;-79
2021/10/11 00:50:19;;;;;;;39.53;19.42;;;;;;;;;;5036581;28;20064;-78
2021/10/11 00:52:47;;;;;;;41.22;20.25;;;;;;;;;;5037103;28;20046;-79
2021/10/11 00:55:14;;;;;;;55.17;24.80;;;;;;;;;;5035611;28;20058;-78
2021/10/11 00:57:41;;;;;;;58.17;26.77;;;;;;;;;;5035516;28;20049;-79
2021/10/11 01:00:10;;;;;;;55.30;24.90;;;;;;;;;;5035977;28;20416;-79
2021/10/11 01:02:36;;;;;;;57.25;25.17;;;;;;;;;;5035926;28;20052;-78
2021/10/11 01:05:04;;;;;;;58.75;26.20;;;;;;;;;;5037357;28;20053;-78
2021/10/11 01:07:30;;;;;;;64.90;29.08;;;;;;;;;;5037647;28;20049;-78
2021/10/11 01:09:57;;;;;;;53.63;25.40;;;;;;;;;;5037090;28;20199;-79
2021/10/11 01:12:24;;;;;;;57.22;25.67;;;;;;;;;;5037177;28;20045;-79
2021/10/11 01:14:51;;;;;;;53.85;25.42;;;;;;;;;;5037132;28;20488;-80
2021/10/11 01:17:19;;;;;;;54.28;25.90;;;;;;;;;;5040252;28;20500;-78
2021/10/11 01:19:48;;;;;;;58.42;26.20;;;;;;;;;;5042792;28;20050;-80
2021/10/11 01:22:16;;;;;;;61.92;28.45;;;;;;;;;;5038677;28;20045;-80
2021/10/11 01:24:43;;;;;;;59.90;26.38;;;;;;;;;;5036987;28;20058;-80
2021/10/11 01:27:09;;;;;;;55.90;25.33;;;;;;;;;;5036865;28;20103;-80
2021/10/11 01:29:36;;;;;;;60.97;27.30;;;;;;;;;;5036626;28;20100;-79
2021/10/11 01:32:03;;;;;;;56.15;24.90;;;;;;;;;;5036737;28;20451;-79
2021/10/11 01:34:30;;;;;;;57.33;24.65;;;;;;;;;;5038974;28;20053;-79
2021/10/11 01:36:57;;;;;;;59.67;27.58;;;;;;;;;;5040135;28;20049;-79
2021/10/11 01:39:25;;;;;;;59.63;26.13;;;;;;;;;;5039998;28;20049;-80
2021/10/11 01:41:51;;;;;;;62.03;26.20;;;;;;;;;;5040134;28;20067;-79
2021/10/11 01:44:18;;;;;;;63.03;26.38;;;;;;;;;;5039999;28;20088;-79
2021/10/11 01:46:45;;;;;;;68.57;28.88;;;;;;;;;;5038904;28;20049;-79
2021/10/11 01:49:12;;;;;;;57.50;26.08;;;;;;;;;;5039593;28;20488;-79
2021/10/11 01:51:38;;;;;;;57.17;25.75;;;;;;;;;;5041545;28;20103;-79
2021/10/11 01:54:05;;;;;;;55.92;25.38;;;;;;;;;;5042218;28;20049;-79
2021/10/11 01:56:33;;;;;;;63.42;27.48;;;;;;;;;;5044271;28;20050;-79
2021/10/11 01:59:00;;;;;;;58.05;25.77;;;;;;;;;;5044580;28;20045;-80
2021/10/11 02:01:27;;;;;;;52.97;24.70;;;;;;;;;;5041395;28;20068;-79
2021/10/11 02:03:53;;;;;;;49.65;24.08;;;;;;;;;;5042053;28;20045;-80
2021/10/11 02:06:22;;;;;;;48.53;21.45;;;;;;;;;;5040895;28;20119;-79
2021/10/11 02:08:48;;;;;;;45.90;22.45;;;;;;;;;;5040236;28;20164;-80
2021/10/11 02:11:15;;;;;;;48.30;22.83;;;;;;;;;;5040077;28;20045;-79
2021/10/11 02:13:43;;;;;;;48.72;20.70;;;;;;;;;;5044408;28;20455;-79
2021/10/11 02:16:10;;;;;;;53.70;22.63;;;;;;;;;;5044654;28;20562;-79
2021/10/11 02:18:37;;;;;;;45.97;21.40;;;;;;;;;;5044576;28;20045;-79
2021/10/11 02:21:03;;;;;;;50.03;22.50;;;;;;;;;;5044228;28;20045;-79
2021/10/11 02:23:30;;;;;;;41.17;18.80;;;;;;;;;;5043638;28;20335;-79
2021/10/11 02:25:57;;;;;;;32.05;16.00;;;;;;;;;;5042871;28;20551;-79
2021/10/11 02:28:23;;;;;;;36.97;18.85;;;;;;;;;;5040124;28;20053;-79
2021/10/11 02:30:52;;;;;;;30.50;15.43;;;;;;;;;;5039874;28;20053;-79
2021/10/11 02:33:18;;;;;;;33.03;15.18;;;;;;;;;;5039110;28;20486;-79
2021/10/11 02:35:45;;;;;;;29.23;14.18;;;;;;;;;;5043671;28;20107;-79
2021/10/11 02:38:12;;;;;;;30.10;14.45;;;;;;;;;;5051935;28;20115;-78
2021/10/11 02:40:39;;;;;;;32.60;15.50;;;;;;;;;;5050096;28;20049;-78
2021/10/11 02:43:06;;;;;;;30.02;15.55;;;;;;;;;;5049630;28;20055;-79
2021/10/11 02:45:33;;;;;;;30.20;14.38;;;;;;;;;;5040849;28;20046;-79
2021/10/11 02:48:03;;;;;;;31.35;14.82;;;;;;;;;;5039484;28;20558;-79
2021/10/11 02:50:30;;;;;;;35.42;16.23;;;;;;;;;;5039102;28;20049;-79
2021/10/11 02:52:57;;;;;;;39.90;18.90;;;;;;;;;;5038893;28;20053;-78
2021/10/11 02:55:24;;;;;;;44.17;19.85;;;;;;;;;;5039038;28;20049;-79
2021/10/11 02:57:51;;;;;;;44.88;18.00;;;;;;;;;;5038194;28;20099;-79
2021/10/11 03:00:17;;;;;;;43.10;17.98;;;;;;;;;;5038039;28;20045;-79
2021/10/11 03:02:44;;;;;;;45.25;18.50;;;;;;;;;;5038281;28;20514;-79
2021/10/11 03:05:12;;;;;;;47.13;19.50;;;;;;;;;;5037899;28;20045;-79
2021/10/11 03:07:39;;;;;;;38.88;16.75;;;;;;;;;;5037637;28;20107;-78
2021/10/11 03:10:06;;;;;;;35.00;14.55;;;;;;;;;;5037549;28;20072;-79
2021/10/11 03:12:35;;;;;;;35.08;16.17;;;;;;;;;;5036801;28;20065;-79
2021/10/11 03:15:02;;;;;;;33.13;15.85;;;;;;;;;;5036975;28;20053;-79
2021/10/11 03:17:29;;;;;;;31.58;14.43;;;;;;;;;;5037164;28;20081;-79
2021/10/11 03:19:55;;;;;;;33.25;16.13;;;;;;;;;;5037481;28;20052;-79
2021/10/11 03:22:23;;;;;;;34.20;15.68;;;;;;;;;;5038218;28;20484;-79
2021/10/11 03:24:50;;;;;;;35.10;14.60;;;;;;;;;;5036912;28;20074;-79
2021/10/11 03:27:17;;;;;;;35.13;15.75;;;;;;;;;;5036828;28;20072;-79
2021/10/11 03:29:44;;;;;;;31.65;14.82;;;;;;;;;;5037757;28;20045;-79
2021/10/11 03:32:11;;;;;;;39.83;16.58;;;;;;;;;;5040692;28;20076;-79
2021/10/11 03:34:37;;;;;;;34.58;16.42;;;;;;;;;;5040661;28;20049;-79
2021/10/11 03:37:05;;;;;;;36.53;16.05;;;;;;;;;;5040596;28;20042;-79
2021/10/11 03:39:33;;;;;;;36.08;15.85;;;;;;;;;;5040167;28;20123;-80
2021/10/11 03:42:00;;;;;;;29.45;14.48;;;;;;;;;;5042018;28;20079;-80
2021/10/11 03:44:27;;;;;;;28.17;12.60;;;;;;;;;;5043038;28;20045;-79
2021/10/11 03:46:54;;;;;;;28.48;13.30;;;;;;;;;;5042451;28;20413;-79
2021/10/11 03:49:20;;;;;;;33.45;14.23;;;;;;;;;;5042851;28;20404;-80
2021/10/11 03:51:47;;;;;;;36.72;15.15;;;;;;;;;;5043319;28;20053;-80
2021/10/11 03:54:14;;;;;;;42.38;18.55;;;;;;;;;;5043050;28;20049;-80
2021/10/11 03:56:44;;;;;;;41.88;18.90;;;;;;;;;;5043450;28;20681;-79
2021/10/11 03:59:11;;;;;;;43.83;19.33;;;;;;;;;;5045326;28;20053;-80
2021/10/11 04:01:38;;;;;;;45.83;18.95;;;;;;;;;;5044668;28;20303;-79
2021/10/11 04:04:06;;;;;;;43.05;18.23;;;;;;;;;;5043619;28;20069;-80
2021/10/11 04:06:32;;;;;;;33.17;15.13;;;;;;;;;;5043271;28;20045;-79
2021/10/11 04:09:00;;;;;;;34.75;15.65;;;;;;;;;;5044255;28;20057;-80
2021/10/11 04:11:28;;;;;;;33.55;16.50;;;;;;;;;;5043294;28;20057;-79
2021/10/11 04:13:56;;;;;;;32.25;15.50;;;;;;;;;;5043525;28;20054;-79
2021/10/11 04:16:23;;;;;;;33.63;14.10;;;;;;;;;;5042957;28;20050;-80
2021/10/11 04:18:50;;;;;;;33.47;14.93;;;;;;;;;;5044454;28;20054;-80
2021/10/11 04:21:16;;;;;;;33.65;14.65;;;;;;;;;;5043701;28;20042;-79
2021/10/11 04:23:43;;;;;;;38.00;17.75;;;;;;;;;;5045561;28;20079;-80
2021/10/11 04:26:10;;;;;;;41.95;20.10;;;;;;;;;;5046895;28;20049;-79
2021/10/11 04:28:37;;;;;;;49.17;21.25;;;;;;;;;;5046769;28;20103;-79
2021/10/11 04:31:06;;;;;;;45.03;18.92;;;;;;;;;;5047104;28;20049;-79
2021/10/11 04:33:32;;;;;;;35.60;16.13;;;;;;;;;;5047435;28;20049;-79
2021/10/11 04:35:59;;;;;;;32.03;14.35;;;;;;;;;;5047544;28;20497;-79
2021/10/11 04:38:26;;;;;;;32.53;14.60;;;;;;;;;;5046934;28;20113;-80
2021/10/11 04:40:53;;;;;;;33.38;15.55;;;;;;;;;;5048127;28;20041;-79
2021/10/11 04:43:20;;;;;;;30.83;14.45;;;;;;;;;;5047772;28;20045;-79
2021/10/11 04:45:46;;;;;;;30.90;15.27;;;;;;;;;;5048158;28;20111;-80
2021/10/11 04:48:15;;;;;;;25.08;12.57;;;;;;;;;;5047889;28;20053;-79
2021/10/11 04:53:14;;;;;;;38.92;17.13;;;;;;;;;;5070528;28;20041;-77
2021/10/11 04:55:41;;;;;;;43.97;18.75;;;;;;;;;;5077439;28;20497;-77
2021/10/11 04:58:08;;;;;;;42.22;18.10;;;;;;;;;;5077449;28;20105;-79
2021/10/11 05:00:36;;;;;;;40.10;18.42;;;;;;;;;;5078998;28;20125;-78
2021/10/11 05:03:03;;;;;;;44.30;20.45;;;;;;;;;;5078929;28;20404;-78
2021/10/11 05:05:32;;;;;;;47.20;20.85;;;;;;;;;;5078557;28;20060;-78
2021/10/11 05:08:00;;;;;;;44.40;20.33;;;;;;;;;;5079597;28;20476;-78
2021/10/11 05:10:27;;;;;;;53.85;22.65;;;;;;;;;;5084522;28;20067;-78
2021/10/11 05:12:53;;;;;;;45.55;19.77;;;;;;;;;;5085186;28;20056;-78
2021/10/11 05:15:20;;;;;;;47.30;21.83;;;;;;;;;;5084220;28;20048;-78
2021/10/11 05:17:47;;;;;;;46.65;19.27;;;;;;;;;;5084847;28;20094;-78
2021/10/11 05:20:14;;;;;;;44.97;18.52;;;;;;;;;;5084709;28;20078;-78
2021/10/11 05:22:42;;;;;;;40.60;17.88;;;;;;;;;;5085000;28;20044;-78
2021/10/11 05:25:10;;;;;;;41.47;18.17;;;;;;;;;;5084424;28;20048;-77
2021/10/11 05:27:37;;;;;;;34.45;16.70;;;;;;;;;;5082927;28;20106;-78
2021/10/11 05:30:05;;;;;;;42.85;18.38;;;;;;;;;;5079503;28;20457;-78
2021/10/11 05:32:33;;;;;;;41.75;18.73;;;;;;;;;;5078864;28;20052;-78
2021/10/11 05:35:01;;;;;;;40.42;18.00;;;;;;;;;;5077289;28;20152;-78
2021/10/11 05:37:29;;;;;;;45.92;19.02;;;;;;;;;;5077485;28;20471;-79
2021/10/11 05:39:57;;;;;;;39.92;18.15;;;;;;;;;;5078073;28;20052;-79
2021/10/11 05:42:24;;;;;;;47.88;19.38;;;;;;;;;;5077362;28;20048;-78
2021/10/11 05:44:51;;;;;;;47.97;19.95;;;;;;;;;;5076680;28;20415;-79
2021/10/11 05:47:18;;;;;;;42.10;18.25;;;;;;;;;;5076460;28;20139;-78
2021/10/11 05:49:44;;;;;;;41.80;18.80;;;;;;;;;;5076598;28;20041;-79
2021/10/11 05:52:11;;;;;;;46.03;18.17;;;;;;;;;;5077866;28;20055;-78
2021/10/11 05:54:38;;;;;;;46.72;19.25;;;;;;;;;;5097651;28;20024;-77
2021/10/11 05:57:06;;;;;;;43.60;19.23;;;;;;;;;;5083518;28;20039;-77
2021/10/11 05:59:33;;;;;;;39.80;17.15;;;;;;;;;;5078001;28;20049;-78
2021/10/11 06:02:00;;;;;;;39.92;18.77;;;;;;;;;;5058393;28;20119;-78
2021/10/11 06:04:27;;;;;;;34.00;16.88;;;;;;;;;;5074186;28;20052;-78
2021/10/11 06:06:54;;;;;;;35.30;16.33;;;;;;;;;;5076882;28;20067;-78
2021/10/11 06:09:21;;;;;;;37.45;17.17;;;;;;;;;;5076035;28;20049;-78
2021/10/11 06:11:48;;;;;;;33.75;14.65;;;;;;;;;;5075224;28;20052;-77
2021/10/11 06:14:17;;;;;;;31.95;15.68;;;;;;;;;;5076806;28;20048;-77
2021/10/11 06:16:47;;;;;;;32.03;15.00;;;;;;;;;;5076846;28;20052;-78
2021/10/11 06:19:15;;;;;;;;;;;;;;;;;;5078322;28;20055;-78
2021/10/11 06:21:42;;;;;;;27.45;13.20;;;;;;;;;;5077066;28;19926;-78
2021/10/11 06:24:11;;;;;;;28.52;13.75;;;;;;;;;;5076202;28;20040;-78
2021/10/11 06:26:38;;;;;;;28.63;12.38;;;;;;;;;;5076051;28;20132;-77
2021/10/11 06:29:05;;;;;;;25.70;12.25;;;;;;;;;;5076247;28;20461;-77
2021/10/11 06:31:33;;;;;;;25.45;11.95;;;;;;;;;;5076089;28;20056;-77
2021/10/11 06:34:00;;;;;;;23.60;11.80;;;;;;;;;;5077497;28;20616;-77
2021/10/11 06:36:28;;;;;;;21.27;11.55;;;;;;;;;;5075707;28;20044;-78
2021/10/11 06:38:55;;;;;;;28.13;12.77;;;;;;;;;;5075488;28;20140;-76
2021/10/11 06:41:22;;;;;;;27.77;13.48;;;;;;;;;;5076877;28;20044;-78
2021/10/11 06:43:48;;;;;;;29.73;15.93;;;;;;;;;;5076537;28;20486;-77
2021/10/11 06:46:15;;;;;;;36.72;16.17;;;;;;;;;;5076777;28;20052;-78
2021/10/11 06:48:43;;;;;;;33.80;17.00;;;;;;;;;;5077258;28;20049;-78
2021/10/11 06:51:10;;;;;;;35.72;17.33;;;;;;;;;;5076798;28;20098;-78
2021/10/11 06:53:37;;;;;;;38.85;18.63;;;;;;;;;;5076988;28;20052;-78
2021/10/11 06:56:04;;;;;;;36.30;17.98;;;;;;;;;;5076521;28;20044;-78
2021/10/11 06:58:31;;;;;;;33.80;17.50;;;;;;;;;;5075760;28;20044;-76
2021/10/11 07:00:58;;;;;;;33.67;17.33;;;;;;;;;;5076018;28;20048;-78
2021/10/11 07:03:25;;;;;;;34.60;17.30;;;;;;;;;;5075316;28;20044;-79
2021/10/11 07:05:59;;;;;;;30.67;17.00;;;;;;;;;;5074582;28;20135;-78
2021/10/11 07:08:26;;;;;;;51.45;24.98;;;;;;;;;;5075895;28;20045;-77
2021/10/11 07:10:54;;;;;;;27.20;14.98;;;;;;;;;;5075629;28;20044;-78
2021/10/11 07:13:21;;;;;;;28.25;12.98;;;;;;;;;;5076661;28;20360;-78
2021/10/11 07:15:49;;;;;;;35.53;17.25;;;;;;;;;;5075672;28;20040;-78
2021/10/11 07:18:17;;;;;;;30.48;15.98;;;;;;;;;;5076220;28;20487;-79
2021/10/11 07:20:45;;;;;;;30.30;13.90;;;;;;;;;;5075227;28;20411;-78
2021/10/11 07:23:14;;;;;;;27.27;15.15;;;;;;;;;;5080924;28;20045;-78
2021/10/11 07:25:42;;;;;;;32.33;15.50;;;;;;;;;;5082257;28;20392;-76
2021/10/11 07:28:09;;;;;;;29.33;15.63;;;;;;;;;;5076166;28;20513;-78
2021/10/11 07:30:35;;;;;;;34.53;16.00;;;;;;;;;;5074946;28;20056;-78
2021/10/11 07:33:05;;;;;;;29.10;14.80;;;;;;;;;;5074137;28;20056;-80
2021/10/11 07:35:32;;;;;;;33.83;16.58;;;;;;;;;;5076492;28;20055;-77
2021/10/11 07:38:00;;;;;;;35.15;15.25;;;;;;;;;;5076909;28;20040;-77
2021/10/11 07:40:28;;;;;;;33.33;17.25;;;;;;;;;;5073006;28;20048;-77
2021/10/11 07:42:55;;;;;;;31.45;16.27;;;;;;;;;;5074199;28;20052;-77
2021/10/11 07:45:22;;;;;;;36.47;17.88;;;;;;;;;;5075031;28;20513;-77
2021/10/11 07:47:49;;;;;;;30.95;15.93;;;;;;;;;;5075665;28;20044;-79
2021/10/11 07:50:16;;;;;;;31.75;15.30;;;;;;;;;;5075295;28;20409;-78
2021/10/11 07:52:43;;;;;;;28.65;16.05;;;;;;;;;;5073703;28;20113;-77
2021/10/11 07:55:10;;;;;;;28.65;15.23;;;;;;;;;;5073956;28;20488;-78
2021/10/11 07:57:38;;;;;;;30.75;16.30;;;;;;;;;;5073314;28;20044;-77
2021/10/11 08:00:08;;;;;;;27.73;14.07;;;;;;;;;;5075856;28;20151;-78
2021/10/11 08:02:36;;;;;;;33.88;15.07;;;;;;;;;;5074916;28;20086;-77
2021/10/11 08:05:03;;;;;;;29.52;14.80;;;;;;;;;;5076163;28;20098;-77
2021/10/11 08:07:30;;;;;;;31.67;15.57;;;;;;;;;;5080332;28;20492;-78
2021/10/11 08:09:57;;;;;;;33.42;15.15;;;;;;;;;;5080884;28;20090;-78
2021/10/11 08:12:23;;;;;;;34.08;15.70;;;;;;;;;;5078544;28;20048;-78
2021/10/11 08:14:52;;;;;;;31.55;16.65;;;;;;;;;;5075987;28;20040;-77
2021/10/11 08:17:20;;;;;;;29.25;16.58;;;;;;;;;;5077185;28;20045;-77
2021/10/11 08:19:47;;;;;;;29.63;15.68;;;;;;;;;;5076545;28;20048;-76
2021/10/11 08:22:14;;;;;;;31.70;18.33;;;;;;;;;;5077176;28;20044;-77
2021/10/11 08:24:41;;;;;;;37.63;18.15;;;;;;;;;;5077584;28;20078;-77
2021/10/11 08:27:08;;;;;;;32.65;17.52;;;;;;;;;;5076441;28;20049;-78
2021/10/11 08:29:35;;;;;;;29.38;15.95;;;;;;;;;;5078099;28;20079;-77
2021/10/11 08:32:03;;;;;;;32.17;17.20;;;;;;;;;;5079731;28;20097;-77
2021/10/11 08:34:30;;;;;;;37.20;19.10;;;;;;;;;;5079115;28;20561;-77
2021/10/11 08:36:57;;;;;;;37.17;17.27;;;;;;;;;;5074508;28;20475;-78
2021/10/11 08:39:25;;;;;;;33.70;18.27;;;;;;;;;;5076250;28;20041;-78
2021/10/11 08:41:52;;;;;;;32.47;17.10;;;;;;;;;;5077676;28;20094;-78
2021/10/11 08:44:19;;;;;;;32.13;16.80;;;;;;;;;;5076811;28;20104;-78
2021/10/11 08:46:46;;;;;;;35.80;17.88;;;;;;;;;;5075469;28;20105;-77
2021/10/11 08:49:14;;;;;;;39.95;19.90;;;;;;;;;;5076332;28;20098;-78
2021/10/11 08:51:41;;;;;;;35.63;17.10;;;;;;;;;;5076558;28;20098;-78
2021/10/11 08:54:08;;;;;;;34.30;18.42;;;;;;;;;;5077030;28;20411;-77
2021/10/11 08:56:35;;;;;;;41.17;21.00;;;;;;;;;;5075170;28;20502;-77
2021/10/11 08:59:01;;;;;;;35.25;17.80;;;;;;;;;;5076633;28;20181;-77
2021/10/11 09:01:28;;;;;;;46.97;22.30;;;;;;;;;;5076845;28;20190;-77
2021/10/11 09:03:55;;;;;;;36.78;17.45;;;;;;;;;;5077213;28;20048;-77
2021/10/11 09:06:24;;;;;;;40.13;20.67;;;;;;;;;;5079067;28;20098;-77
2021/10/11 09:08:50;;;;;;;40.80;20.58;;;;;;;;;;5077516;28;20553;-78
2021/10/11 09:11:18;;;;;;;36.88;18.65;;;;;;;;;;5094926;28;20036;-77
2021/10/11 09:13:51;;;;;;;42.70;21.23;;;;;;;;;;5100331;28;20056;-77
2021/10/11 09:16:29;;;;;;;37.08;18.38;;;;;;;;;;5099886;28;20079;-77
2021/10/11 09:18:58;;;;;;;35.30;19.92;;;;;;;;;;5087726;28;20048;-77
2021/10/11 09:21:33;;;;;;;34.97;17.52;;;;;;;;;;5078650;28;20051;-77
2021/10/11 09:24:05;;;;;;;40.00;20.73;;;;;;;;;;5078332;28;20044;-76
2021/10/11 09:26:41;;;;;;;36.20;19.58;;;;;;;;;;5077449;28;20052;-76
2021/10/11 09:29:08;;;;;;;36.20;20.42;;;;;;;;;;5077538;28;20048;-77
2021/10/11 09:31:36;;;;;;;42.60;20.50;;;;;;;;;;5079346;28;20106;-78
2021/10/11 09:34:03;;;;;;;43.15;23.42;;;;;;;;;;5076736;28;20403;-77
2021/10/11 09:36:30;;;;;;;41.40;21.83;;;;;;;;;;5075478;28;20493;-76
2021/10/11 09:39:03;;;;;;;36.35;19.40;;;;;;;;;;5077813;28;20076;-78
2021/10/11 09:41:30;;;;;;;39.60;22.30;;;;;;;;;;5078471;28;20045;-77
2021/10/11 09:43:57;;;;;;;44.55;21.75;;;;;;;;;;5078328;28;20045;-77
2021/10/11 09:46:26;;;;;;;39.58;21.33;;;;;;;;;;5078415;28;20499;-78
2021/10/11 09:48:55;;;;;;;50.95;22.10;;;;;;;;;;5079230;28;20055;-77
2021/10/11 09:51:25;;;;;;;45.00;22.17;;;;;;;;;;5077176;28;20049;-79
2021/10/11 09:53:53;;;;;;;37.33;20.70;;;;;;;;;;5077794;28;20051;-78
2021/10/11 09:56:25;;;;;;;40.72;20.83;;;;;;;;;;5077985;28;20044;-77
2021/10/11 09:58:53;;;;;;;41.78;20.77;;;;;;;;;;5078289;28;20456;-77
2021/10/11 10:01:22;;;;;;;44.28;22.73;;;;;;;;;;5077491;28;20048;-79
2021/10/11 10:03:50;;;;;;;44.85;23.48;;;;;;;;;;5074639;28;20150;-77
2021/10/11 10:06:17;;;;;;;39.47;20.75;;;;;;;;;;5078516;28;20098;-77
2021/10/11 10:08:48;;;;;;;40.10;21.73;;;;;;;;;;5075712;28;20052;-77
2021/10/11 10:11:17;;;;;;;43.33;20.45;;;;;;;;;;5075135;28;20056;-79
2021/10/11 10:13:49;;;;;;;37.78;19.70;;;;;;;;;;5075841;28;20070;-78
2021/10/11 10:16:17;;;;;;;37.50;18.77;;;;;;;;;;5075132;28;20040;-78
2021/10/11 10:18:46;;;;;;;39.55;20.25;;;;;;;;;;5075502;28;20059;-77
2021/10/11 10:21:15;;;;;;;37.63;19.52;;;;;;;;;;5074585;28;20537;-78
2021/10/11 10:23:44;;;;;;;34.35;19.48;;;;;;;;;;5074380;28;20415;-77
2021/10/11 10:26:13;;;;;;;37.75;19.10;;;;;;;;;;5073940;28;20044;-78
2021/10/11 10:28:45;;;;;;;35.15;18.80;;;;;;;;;;5073641;28;20098;-77
2021/10/11 10:31:26;;;;;;;31.55;17.48;;;;;;;;;;5073837;28;20450;-78
2021/10/11 10:33:52;;;;;;;;;;;;;;;;;;5077083;28;20100;-78
2021/10/11 10:36:21;;;;;;;33.30;18.65;;;;;;;;;;5076158;28;20301;-78
2021/10/11 10:39:02;;;;;;;33.78;18.77;;;;;;;;;;5075315;28;20109;-78
2021/10/11 10:41:31;;;;;;;35.03;17.55;;;;;;;;;;5075669;28;20051;-77
2021/10/11 10:44:11;;;;;;;35.90;18.40;;;;;;;;;;5075573;28;20044;-77
2021/10/11 10:46:50;;;;;;;34.53;18.38;;;;;;;;;;5075206;28;20114;-78
2021/10/11 10:49:27;;;;;;;34.25;17.15;;;;;;;;;;5075808;28;20053;-78
2021/10/11 10:51:54;;;;;;;35.05;19.30;;;;;;;;;;5075359;28;20055;-77
2021/10/11 10:54:21;;;;;;;33.00;16.48;;;;;;;;;;5077220;28;20110;-77
2021/10/11 10:56:53;;;;;;;31.77;17.42;;;;;;;;;;5067300;28;20072;-78
2021/10/11 10:59:24;;;;;;;53.33;27.77;;;;;;;;;;5061427;28;20045;-77
2021/10/11 11:02:01;;;;;;;;;;;;;;;;;;5059641;28;20052;-77
2021/10/11 11:04:28;;;;;;;30.60;16.48;;;;;;;;;;5056798;28;19920;-77
2021/10/11 11:06:59;;;;;;;30.75;15.70;;;;;;;;;;5055948;28;20064;-77
2021/10/11 11:09:37;;;;;;;;;;;;;;;;;;5057795;28;20148;-77
2021/10/11 11:12:04;;;;;;;30.27;15.82;;;;;;;;;;5056105;28;19927;-77
2021/10/11 11:14:31;;;;;;;32.47;16.80;;;;;;;;;;5057114;28;20458;-77
2021/10/11 11:16:59;;;;;;;34.58;17.48;;;;;;;;;;5056923;28;20495;-77
2021/10/11 11:19:36;;;;;;;33.03;16.52;;;;;;;;;;5057170;28;20052;-77
2021/10/11 11:22:03;;;;;;;26.48;14.70;;;;;;;;;;5056337;28;20094;-77
2021/10/11 11:24:30;;;;;;;41.42;21.17;;;;;;;;;;5056716;28;20057;-77
2021/10/11 11:26:59;;;;;;;30.23;15.52;;;;;;;;;;5057057;28;20053;-78
2021/10/11 11:29:26;;;;;;;28.33;16.30;;;;;;;;;;5057993;28;20107;-78
2021/10/11 11:31:54;;;;;;;39.53;20.42;;;;;;;;;;5057606;28;20278;-77
2021/10/11 11:34:26;;;;;;;31.00;15.75;;;;;;;;;;5058409;28;20052;-77
2021/10/11 11:36:54;;;;;;;33.40;16.80;;;;;;;;;;5057312;28;20049;-77
2021/10/11 11:39:21;;;;;;;36.58;17.30;;;;;;;;;;5057691;28;20044;-77
2021/10/11 11:41:52;;;;;;;27.17;15.65;;;;;;;;;;5056215;28;20106;-77
2021/10/11 11:44:24;;;;;;;23.95;13.77;;;;;;;;;;5058813;28;20511;-77
2021/10/11 11:47:02;;;;;;;25.38;14.30;;;;;;;;;;5057872;28;20059;-78
2021/10/11 11:49:34;;;;;;;23.30;12.57;;;;;;;;;;5060722;28;20055;-77
2021/10/11 11:52:07;;;;;;;27.60;13.77;;;;;;;;;;5055399;28;20041;-79
2021/10/11 11:54:34;;;;;;;25.33;13.38;;;;;;;;;;5055925;28;20092;-76
2021/10/11 11:57:02;;;;;;;23.08;12.13;;;;;;;;;;5055218;28;20044;-77
2021/10/11 11:59:29;;;;;;;19.92;10.45;;;;;;;;;;5058824;28;20045;-77
2021/10/11 12:01:59;;;;;;;24.88;13.93;;;;;;;;;;5058074;28;20110;-77
2021/10/11 12:04:26;;;;;;;24.50;13.80;;;;;;;;;;5055971;28;20048;-78
2021/10/11 12:06:55;;;;;;;26.95;14.95;;;;;;;;;;5055194;28;20389;-78
2021/10/11 12:09:23;;;;;;;26.75;13.50;;;;;;;;;;5054641;28;20049;-78
2021/10/11 12:12:01;;;;;;;26.40;13.52;;;;;;;;;;5054496;28;20049;-78
2021/10/11 12:14:28;;;;;;;29.65;13.68;;;;;;;;;;5056117;28;20049;-78
2021/10/11 12:17:04;;;;;;;27.40;14.00;;;;;;;;;;5055716;28;20508;-78
2021/10/11 12:19:32;;;;;;;27.90;13.70;;;;;;;;;;5055836;28;20131;-78
2021/10/11 12:22:02;;;;;;;21.67;11.43;;;;;;;;;;5054828;28;20462;-78
2021/10/11 12:24:32;;;;;;;22.55;11.73;;;;;;;;;;5055624;28;20064;-77
2021/10/11 12:27:03;;;;;;;23.90;13.05;;;;;;;;;;5054295;28;20056;-77
2021/10/11 12:29:32;;;;;;;25.40;12.50;;;;;;;;;;5068997;28;20037;-77
2021/10/11 12:32:00;;;;;;;34.90;14.82;;;;;;;;;;5076686;28;20032;-77
2021/10/11 12:34:29;;;;;;;25.08;12.35;;;;;;;;;;5076857;28;20041;-77
2021/10/11 12:36:57;;;;;;;22.95;13.15;;;;;;;;;;5065852;28;20106;-78
2021/10/11 12:39:32;;;;;;;25.52;13.57;;;;;;;;;;5056910;28;20162;-77
2021/10/11 12:42:00;;;;;;;23.58;13.77;;;;;;;;;;5055609;28;20049;-76
2021/10/11 12:44:37;;;;;;;28.40;12.68;;;;;;;;;;5056391;28;20048;-77
2021/10/11 12:47:05;;;;;;;21.23;11.57;;;;;;;;;;5057324;28;20474;-77
2021/10/11 12:49:35;;;;;;;22.50;10.55;;;;;;;;;;5057415;28;20083;-77
2021/10/11 12:52:02;;;;;;;18.92;9.95;;;;;;;;;;5057261;28;20045;-77
2021/10/11 12:54:43;;;;;;;15.75;9.38;;;;;;;;;;5057305;28;20136;-77
2021/10/11 12:57:10;;;;;;;22.05;11.93;;;;;;;;;;5057415;28;20545;-78
2021/10/11 12:59:39;;;;;;;22.45;10.88;;;;;;;;;;5057674;28;20577;-78
2021/10/11 13:02:06;;;;;;;22.55;11.73;;;;;;;;;;5060568;28;20045;-77
2021/10/11 13:04:33;;;;;;;18.90;10.13;;;;;;;;;;5068083;28;20048;-77
2021/10/11 13:06:59;;;;;;;20.38;10.55;;;;;;;;;;5065878;28;20048;-77
2021/10/11 13:09:26;;;;;;;19.35;9.43;;;;;;;;;;5067219;28;20045;-78
2021/10/11 13:11:54;;;;;;;18.38;10.15;;;;;;;;;;5065451;28;20078;-78
2021/10/11 13:14:22;;;;;;;16.50;10.02;;;;;;;;;;5067178;28;20052;-77
2021/10/11 13:16:49;;;;;;;19.58;10.77;;;;;;;;;;5067123;28;20064;-76
2021/10/11 13:19:17;;;;;;;20.83;11.82;;;;;;;;;;5067308;28;20075;-76
2021/10/11 13:21:44;;;;;;;20.88;10.55;;;;;;;;;;5066816;28;20041;-78
2021/10/11 13:24:10;;;;;;;21.83;11.05;;;;;;;;;;5065439;28;20068;-78
2021/10/11 13:26:37;;;;;;;25.25;12.25;;;;;;;;;;5062771;28;20056;-78
2021/10/11 13:29:18;;;;;;;21.90;10.75;;;;;;;;;;5062078;28;20041;-77
2021/10/11 14:29:34;;;;;;;40.08;16.83;;;;;;;;;;5076010;28;20101;-77
2021/10/11 14:32:06;;;;;;;27.70;13.77;;;;;;;;;;5077216;28;20056;-78
2021/10/11 14:34:55;;;;;;;31.08;15.23;;;;;;;;;;5078710;28;20468;-79
2021/10/11 15:59:45;;;;;;;17.60;10.70;;;;;;;;;;5075680;28;20055;-78
2021/10/11 16:02:29;;;;;;;22.48;12.00;;;;;;;;;;5073948;28;20477;-78
2021/10/11 16:04:56;;;;;;;19.75;9.25;;;;;;;;;;5074502;28;20131;-77
2021/10/11 16:07:23;;;;;;;20.42;10.32;;;;;;;;;;5073385;28;20106;-77
2021/10/11 16:09:50;;;;;;;20.95;10.70;;;;;;;;;;5073826;28;20048;-80
2021/10/11 16:12:18;;;;;;;24.70;12.07;;;;;;;;;;5073397;28;20748;-79
2021/10/11 16:14:45;;;;;;;18.92;10.82;;;;;;;;;;5073631;28;20060;-77
2021/10/11 16:17:12;;;;;;;21.23;10.60;;;;;;;;;;5072503;28;20048;-77
2021/10/11 16:19:39;;;;;;;22.27;11.40;;;;;;;;;;5076373;28;20109;-79
2021/10/11 16:22:06;;;;;;;20.23;10.38;;;;;;;;;;5076897;28;20560;-77
2021/10/11 16:24:32;;;;;;;20.35;9.80;;;;;;;;;;5077304;28;20551;-77
2021/10/11 16:26:59;;;;;;;18.35;10.52;;;;;;;;;;5077350;28;20052;-78
2021/10/11 16:29:27;;;;;;;24.17;11.07;;;;;;;;;;5077292;28;20103;-77
2021/10/11 16:31:54;;;;;;;20.67;12.13;;;;;;;;;;5077181;28;20473;-78
2021/10/11 16:34:23;;;;;;;23.23;11.70;;;;;;;;;;5077308;28;20052;-78
2021/10/11 16:36:49;;;;;;;28.33;15.80;;;;;;;;;;5078645;28;20052;-79
2021/10/11 16:39:16;;;;;;;116.28;59.88;;;;;;;;;;5079070;28;20572;-78
2021/10/11 16:41:43;;;;;;;77.72;39.78;;;;;;;;;;5077953;28;20048;-79
2021/10/11 16:44:12;;;;;;;53.80;29.83;;;;;;;;;;5078007;28;20051;-78
2021/10/11 16:46:41;;;;;;;28.70;15.98;;;;;;;;;;5077054;28;20479;-78